Time;durP1;ratioP1;P1;durP2;ratioP2;P2;SDS_P1;SDS_P2;PMS_P1;PMS_P2;Temp;Humidity;BMP_temperature;BMP_pressure;BME280_temperature;BME280_humidity;BME280_pressure;Samples;Min_cycle;Max_cycle;Signal;HPM_P1;HPM_P2
2023/05/17 00:01:55;;;;;;;4.80;2.80;;;;;;;18.11;43.79;99621.41;78255;1294;3027920;-67
2023/05/17 00:04:22;;;;;;;9.70;3.80;;;;;;;18.10;43.91;99623.86;79577;1294;3013879;-68
2023/05/17 00:06:48;;;;;;;13.30;3.30;;;;;;;18.06;43.78;99627.74;79520;1300;3011793;-69
2023/05/17 00:09:16;;;;;;;8.50;2.80;;;;;;;18.06;44.00;99627.05;78331;1294;3048866;-68
2023/05/17 00:11:42;;;;;;;4.70;2.60;;;;;;;18.08;43.95;99629.86;79685;1300;3013414;-70
2023/05/17 00:14:10;;;;;;;5.00;2.80;;;;;;;18.06;44.01;99628.06;79494;1294;3011786;-69
2023/05/17 00:16:38;;;;;;;4.10;2.40;;;;;;;18.03;43.60;99628.17;78451;1295;3052227;-66
2023/05/17 00:19:05;;;;;;;13.00;2.90;;;;;;;17.98;43.46;99628.47;79536;1299;3013225;-66
2023/05/17 00:21:31;;;;;;;7.10;3.30;;;;;;;18.00;43.25;99631.45;79563;1298;3012965;-68
2023/05/17 00:23:59;;;;;;;10.00;2.70;;;;;;;18.01;43.37;99628.75;78159;1298;3028694;-68
2023/05/17 00:26:26;;;;;;;6.10;2.80;;;;;;;17.99;43.48;99632.98;79550;1300;3018708;-72
2023/05/17 00:28:52;;;;;;;5.50;2.70;;;;;;;17.96;43.65;99636.60;80137;1294;3013221;-65
2023/05/17 00:31:20;;;;;;;6.00;2.70;;;;;;;17.95;43.65;99634.55;79078;1300;3026050;-65
2023/05/17 00:33:46;;;;;;;10.90;3.10;;;;;;;17.87;43.58;99634.48;80260;1294;3012918;-68
2023/05/17 00:36:13;;;;;;;5.80;2.30;;;;;;;17.88;43.58;99633.55;79388;1294;3012012;-69
2023/05/17 00:38:41;;;;;;;11.00;3.10;;;;;;;17.90;43.56;99632.65;78243;1299;3025824;-65
2023/05/17 00:41:09;;;;;;;14.50;3.00;;;;;;;17.92;43.12;99630.59;79229;1299;3013679;-69
2023/05/17 00:43:35;;;;;;;8.20;2.20;;;;;;;17.91;43.60;99630.27;79240;1294;3011982;-63
2023/05/17 00:46:03;;;;;;;4.90;2.60;;;;;;;17.88;43.81;99630.36;78228;1294;3050998;-66
2023/05/17 00:48:30;;;;;;;8.00;2.70;;;;;;;17.83;43.59;99629.77;79471;1300;3013548;-65
2023/05/17 00:50:57;;;;;;;8.10;2.40;;;;;;;17.78;43.52;99624.34;79338;1294;3011718;-63
2023/05/17 00:53:28;;;;;;;5.20;2.40;;;;;;;17.81;43.37;99623.69;78245;1298;3025309;-65
2023/05/17 00:55:55;;;;;;;4.50;2.30;;;;;;;17.81;43.77;99626.18;79519;1294;3011487;-67
2023/05/17 00:58:23;;;;;;;3.80;2.20;;;;;;;17.79;43.41;99627.95;78231;1311;3028825;-68
2023/05/17 01:00:50;;;;;;;5.50;2.70;;;;;;;17.79;43.47;99627.91;79456;1298;3012824;-67
2023/05/17 01:03:18;;;;;;;3.90;2.20;;;;;;;17.79;43.30;99625.45;79528;1295;3011814;-67
2023/05/17 01:05:45;;;;;;;7.10;2.20;;;;;;;17.78;43.49;99623.58;78053;1294;3049022;-65
2023/05/17 01:08:12;;;;;;;6.50;2.90;;;;;;;17.76;43.54;99625.02;79430;1300;3013577;-66
2023/05/17 01:10:43;;;;;;;5.90;2.50;;;;;;;17.76;43.87;99628.17;79567;1294;3011922;-67
2023/05/17 01:13:36;;;;;;;5.20;2.10;;;;;;;17.74;43.75;99629.77;78352;1300;3051628;-63
2023/05/17 01:16:32;;;;;;;4.30;2.10;;;;;;;17.73;43.69;99630.08;78127;1299;3068884;-67
2023/05/17 01:19:06;;;;;;;11.40;2.70;;;;;;;17.68;43.89;99630.17;78258;1300;3052960;-65
2023/05/17 01:21:59;;;;;;;7.10;2.40;;;;;;;17.69;43.89;99630.09;78904;1300;3013344;-68
2023/05/17 01:24:49;;;;;;;12.00;2.80;;;;;;;17.69;44.36;99628.70;78295;1299;3056474;-66
2023/05/17 01:27:17;;;;;;;6.10;2.80;;;;;;;17.65;44.36;99634.02;78066;1294;3049040;-68
2023/05/17 01:29:44;;;;;;;10.50;3.00;;;;;;;17.65;44.13;99634.91;79141;1300;3013294;-68
2023/05/17 01:32:12;;;;;;;10.60;2.90;;;;;;;17.66;44.11;99638.90;79110;1294;3013197;-69
2023/05/17 01:34:40;;;;;;;9.70;3.00;;;;;;;17.66;44.17;99641.52;77935;1295;3052523;-65
2023/05/17 01:37:06;;;;;;;11.70;3.00;;;;;;;17.60;44.54;99641.80;79496;1295;3015591;-68
2023/05/17 01:39:33;;;;;;;12.90;2.80;;;;;;;17.56;44.62;99637.02;79257;1294;3011921;-67
2023/05/17 01:42:36;;;;;;;13.20;3.10;;;;;;;17.56;44.66;99636.02;78117;1300;3027908;-65
2023/05/17 01:45:11;;;;;;;11.80;2.60;;;;;;;17.51;45.02;99630.89;77995;1295;3054229;-68
2023/05/17 01:47:52;;;;;;;8.80;2.70;;;;;;;17.49;44.62;99625.27;78095;1299;3050127;-65
2023/05/17 01:50:22;;;;;;;15.30;3.50;;;;;;;17.44;44.97;99623.77;78140;1295;3053159;-67
2023/05/17 01:52:54;;;;;;;13.50;3.50;;;;;;;17.42;44.91;99623.31;79483;1297;3011758;-67
2023/05/17 01:55:29;;;;;;;11.70;3.20;;;;;;;17.38;44.91;99626.90;78005;1300;3068262;-66
2023/05/17 01:57:58;;;;;;;11.50;2.40;;;;;;;17.34;44.99;99629.40;78999;1297;3013673;-66
2023/05/17 02:00:25;;;;;;;10.60;2.60;;;;;;;17.33;45.16;99629.82;79324;1296;3013608;-64
2023/05/17 02:02:52;;;;;;;10.10;2.50;;;;;;;17.32;45.30;99632.04;79217;1300;3012055;-63
2023/05/17 02:05:21;;;;;;;8.10;2.70;;;;;;;17.30;45.15;99629.60;78265;1297;3053911;-65
2023/05/17 02:07:48;;;;;;;5.90;2.20;;;;;;;17.27;45.26;99631.40;79560;1294;3014025;-66
2023/05/17 02:10:14;;;;;;;11.20;2.40;;;;;;;17.24;45.35;99631.70;79378;1294;3011961;-69
2023/05/17 02:12:45;;;;;;;8.80;2.30;;;;;;;17.26;44.99;99639.96;78084;1300;3069820;-66
2023/05/17 02:15:12;;;;;;;7.40;2.30;;;;;;;17.26;45.29;99639.25;79451;1297;3012948;-67
2023/05/17 02:17:39;;;;;;;6.10;2.60;;;;;;;17.27;45.00;99643.04;79359;1295;3013403;-68
2023/05/17 02:20:09;;;;;;;7.40;2.30;;;;;;;17.28;45.08;99645.34;78413;1299;3052356;-71
2023/05/17 02:22:37;;;;;;;4.10;2.30;;;;;;;17.27;45.16;99652.24;79354;1294;3011970;-65
2023/05/17 02:25:04;;;;;;;4.70;2.10;;;;;;;17.25;45.43;99653.37;79426;1300;3011733;-65
2023/05/17 02:27:33;;;;;;;7.20;2.80;;;;;;;17.23;45.36;99654.56;78165;1299;3068365;-67
2023/05/17 02:30:00;;;;;;;11.20;2.20;;;;;;;17.23;45.34;99658.61;79320;1294;3018882;-68
2023/05/17 02:32:27;;;;;;;5.20;1.90;;;;;;;17.23;45.26;99661.85;79315;1299;3011918;-65
2023/05/17 02:34:55;;;;;;;4.40;1.90;;;;;;;17.26;45.22;99667.88;78199;1293;3025203;-66
2023/05/17 02:37:23;;;;;;;13.40;2.60;;;;;;;17.27;45.63;99671.90;79424;1299;3013170;-64
2023/05/17 02:39:50;;;;;;;7.40;2.40;;;;;;;17.26;45.67;99678.95;79379;1294;3013792;-68
2023/05/17 02:42:18;;;;;;;6.00;2.10;;;;;;;17.25;45.73;99675.61;78209;1298;3068888;-70
2023/05/17 02:44:44;;;;;;;10.80;2.50;;;;;;;17.23;45.74;99679.54;79623;1294;3013566;-67
2023/05/17 02:47:11;;;;;;;17.40;2.80;;;;;;;17.23;45.62;99675.15;79571;1295;3011604;-71
2023/05/17 02:49:38;;;;;;;7.80;2.20;;;;;;;17.21;45.59;99676.48;78239;1300;3026366;-65
2023/05/17 02:52:05;;;;;;;9.00;2.40;;;;;;;17.21;45.48;99680.02;79329;1300;3013370;-65
2023/05/17 02:54:32;;;;;;;9.20;2.30;;;;;;;17.18;45.36;99679.96;79313;1294;3011890;-67
2023/05/17 02:57:01;;;;;;;7.30;2.40;;;;;;;17.20;45.43;99683.29;78010;1295;3028606;-69
2023/05/17 02:59:28;;;;;;;6.90;2.50;;;;;;;17.21;45.59;99686.27;79623;1295;3013986;-67
2023/05/17 03:01:55;;;;;;;6.30;2.10;;;;;;;17.18;45.97;99685.80;79460;1294;3011679;-67
2023/05/17 03:04:23;;;;;;;14.70;2.60;;;;;;;17.18;45.45;99687.05;78183;1300;3053320;-69
2023/05/17 03:06:50;;;;;;;6.50;2.00;;;;;;;17.17;45.42;99693.70;79677;1298;3013300;-66
2023/05/17 03:09:17;;;;;;;7.70;2.10;;;;;;;17.15;45.49;99692.11;79214;1294;3011585;-68
2023/05/17 03:11:47;;;;;;;5.70;2.60;;;;;;;17.14;45.41;99701.95;78075;1300;3067613;-67
2023/05/17 03:14:19;;;;;;;7.20;2.50;;;;;;;17.13;45.27;99702.69;79334;1300;3011708;-67
2023/05/17 03:16:47;;;;;;;10.90;3.10;;;;;;;17.15;45.34;99702.70;78321;1300;3057306;-64
2023/05/17 03:19:14;;;;;;;6.50;2.40;;;;;;;17.14;45.29;99705.27;77456;1300;3039179;-65
2023/05/17 03:21:43;;;;;;;12.50;2.70;;;;;;;17.19;45.36;99709.59;79704;1299;3011892;-66
2023/05/17 03:24:12;;;;;;;7.60;2.90;;;;;;;17.20;45.26;99714.27;78357;1298;3053011;-67
2023/05/17 03:26:39;;;;;;;5.50;2.30;;;;;;;17.26;45.29;99717.32;79783;1297;3014910;-65
2023/05/17 03:29:07;;;;;;;13.30;2.70;;;;;;;17.27;45.76;99718.44;79264;1295;3012160;-65
2023/05/17 03:31:35;;;;;;;12.50;2.80;;;;;;;17.26;45.73;99718.02;78256;1300;3057426;-70
2023/05/17 03:34:02;;;;;;;7.20;2.60;;;;;;;17.26;45.79;99718.52;79256;1295;3020920;-69
2023/05/17 03:36:30;;;;;;;11.80;3.30;;;;;;;17.27;45.58;99717.80;79456;1295;3011656;-67
2023/05/17 03:38:58;;;;;;;7.40;2.40;;;;;;;17.26;45.69;99721.54;78487;1298;3053073;-65
2023/05/17 03:41:25;;;;;;;12.80;2.30;;;;;;;17.29;45.63;99720.61;79616;1300;3012822;-65
2023/05/17 03:43:51;;;;;;;13.60;2.70;;;;;;;17.33;45.60;99725.57;79423;1294;3011657;-65
2023/05/17 03:46:21;;;;;;;12.50;3.50;;;;;;;17.39;45.63;99723.85;78381;1294;3055507;-65
2023/05/17 03:48:48;;;;;;;11.40;2.70;;;;;;;17.38;45.64;99720.21;79386;1300;3012479;-64
2023/05/17 03:51:14;;;;;;;9.70;2.90;;;;;;;17.49;45.32;99724.23;79261;1295;3011651;-65
2023/05/17 03:53:43;;;;;;;8.90;2.20;;;;;;;17.58;45.41;99729.35;78494;1298;3052245;-66
2023/05/17 03:56:09;;;;;;;6.90;2.20;;;;;;;17.61;45.45;99729.95;79422;1298;3013260;-69
2023/05/17 03:58:37;;;;;;;8.90;2.20;;;;;;;17.64;45.32;99734.66;79412;1294;3011744;-71
2023/05/17 04:01:06;;;;;;;4.20;2.00;;;;;;;17.70;45.54;99739.65;78024;1300;3056203;-67
2023/05/17 04:03:33;;;;;;;6.40;2.30;;;;;;;17.78;45.71;99737.67;79755;1294;3012686;-70
2023/05/17 04:06:05;;;;;;;8.50;2.40;;;;;;;17.80;45.51;99741.21;79498;1294;3011718;-66
2023/05/17 04:08:34;;;;;;;5.80;2.10;;;;;;;17.91;44.96;99739.05;78543;1299;3052462;-63
2023/05/17 04:11:09;;;;;;;10.20;2.20;;;;;;;17.98;44.90;99740.66;79495;1296;3018541;-70
2023/05/17 04:13:38;;;;;;;10.00;2.10;;;;;;;18.04;44.57;99743.83;78142;1300;3052224;-66
2023/05/17 04:16:06;;;;;;;16.20;2.10;;;;;;;18.13;44.58;99744.61;79453;1295;3013644;-64
2023/05/17 04:18:36;;;;;;;10.30;2.80;;;;;;;18.19;44.72;99746.02;78850;1298;3013676;-66
2023/05/17 04:21:03;;;;;;;8.90;2.10;;;;;;;18.30;44.19;99746.84;79553;1294;3013246;-66
2023/05/17 04:23:33;;;;;;;7.20;2.20;;;;;;;18.33;43.84;99744.83;79780;1294;3011635;-66
2023/05/17 04:26:03;;;;;;;6.20;2.40;;;;;;;18.39;44.22;99751.16;78244;1298;3053292;-65
2023/05/17 04:28:30;;;;;;;7.90;2.10;;;;;;;18.47;43.76;99748.71;79547;1300;3013170;-68
2023/05/17 04:30:57;;;;;;;9.50;3.00;;;;;;;18.53;43.89;99748.38;79598;1298;3011600;-68
2023/05/17 04:33:25;;;;;;;10.00;2.20;;;;;;;18.57;43.76;99749.84;78331;1299;3049096;-67
2023/05/17 04:35:53;;;;;;;12.10;1.90;;;;;;;18.62;44.27;99747.91;79466;1300;3013283;-66
2023/05/17 04:38:21;;;;;;;7.00;2.00;;;;;;;18.68;44.01;99749.01;79648;1294;3011602;-65
2023/05/17 04:40:50;;;;;;;5.00;1.90;;;;;;;18.79;43.63;99754.76;78284;1300;3053314;-66
2023/05/17 04:43:17;;;;;;;6.90;2.00;;;;;;;18.83;43.74;99756.86;79683;1300;3013023;-66
2023/05/17 04:45:44;;;;;;;5.30;1.70;;;;;;;18.87;43.29;99760.79;79588;1296;3011424;-68
2023/05/17 04:48:12;;;;;;;4.60;1.60;;;;;;;18.93;43.65;99760.40;78144;1295;3048755;-70
2023/05/17 04:50:39;;;;;;;4.60;1.50;;;;;;;19.03;43.68;99759.87;79426;1295;3012977;-68
2023/05/17 04:53:07;;;;;;;4.90;1.70;;;;;;;19.11;43.19;99764.48;79558;1295;3011256;-67
2023/05/17 04:55:37;;;;;;;4.90;1.90;;;;;;;19.14;43.49;99769.01;78516;1300;3053135;-64
2023/05/17 04:58:04;;;;;;;6.90;1.80;;;;;;;19.21;43.29;99770.29;79591;1299;3013317;-68
2023/05/17 05:00:31;;;;;;;4.00;1.70;;;;;;;19.24;43.22;99768.46;79387;1300;3011686;-66
2023/05/17 05:03:03;;;;;;;6.30;1.80;;;;;;;19.18;42.91;99769.34;78548;1295;3049291;-64
2023/05/17 05:05:31;;;;;;;4.70;2.00;;;;;;;19.17;42.74;99772.50;79453;1295;3013200;-67
2023/05/17 05:07:57;;;;;;;3.70;1.60;;;;;;;19.14;43.16;99773.57;79527;1295;3011629;-67
2023/05/17 05:10:28;;;;;;;6.40;2.20;;;;;;;19.12;42.94;99772.35;78757;1300;3052902;-67
2023/05/17 05:12:56;;;;;;;5.70;1.70;;;;;;;19.09;42.73;99770.83;80109;1300;3014584;-68
2023/05/17 05:15:25;;;;;;;4.20;1.70;;;;;;;19.09;42.98;99772.98;79185;1296;3025818;-69
2023/05/17 05:17:55;;;;;;;3.40;1.80;;;;;;;19.18;42.48;99776.09;80379;1298;3011575;-69
2023/05/17 05:20:23;;;;;;;9.30;1.60;;;;;;;19.20;42.17;99778.36;79283;1294;3028639;-66
2023/05/17 05:22:50;;;;;;;3.90;1.50;;;;;;;19.24;41.80;99778.73;80401;1297;3013667;-70
2023/05/17 05:25:18;;;;;;;6.40;1.50;;;;;;;19.27;42.06;99781.80;80007;1300;3011785;-70
2023/05/17 05:27:47;;;;;;;3.40;1.50;;;;;;;19.33;41.30;99782.16;78585;1299;3053155;-68
2023/05/17 05:30:20;;;;;;;4.20;1.40;;;;;;;19.35;41.16;99782.91;79615;1298;3013560;-70
2023/05/17 05:32:49;;;;;;;4.00;1.60;;;;;;;19.38;41.67;99787.73;78379;1298;3055652;-66
2023/05/17 05:35:16;;;;;;;3.20;1.70;;;;;;;19.42;40.93;99785.03;79564;1297;3013647;-66
2023/05/17 05:37:43;;;;;;;6.80;1.60;;;;;;;19.50;41.08;99785.98;79495;1295;3011698;-66
2023/05/17 05:40:11;;;;;;;7.30;1.30;;;;;;;19.56;39.32;99786.25;78305;1300;3026779;-65
2023/05/17 05:42:39;;;;;;;5.00;1.30;;;;;;;19.60;39.51;99785.84;79340;1299;3013550;-68
2023/05/17 05:45:07;;;;;;;4.10;1.30;;;;;;;19.59;39.06;99788.11;79872;1295;3011816;-67
2023/05/17 05:47:35;;;;;;;4.30;1.00;;;;;;;19.59;38.61;99790.79;78535;1296;3057005;-69
2023/05/17 05:50:02;;;;;;;3.40;1.40;;;;;;;19.69;39.26;99793.60;79368;1295;3019085;-68
2023/05/17 05:52:30;;;;;;;5.20;1.50;;;;;;;19.74;39.73;99792.95;79554;1294;3012143;-67
2023/05/17 05:54:58;;;;;;;7.60;1.90;;;;;;;19.79;40.08;99791.91;78459;1298;3052137;-68
2023/05/17 05:57:25;;;;;;;3.80;1.40;;;;;;;19.84;39.72;99789.38;79738;1294;3013180;-68
2023/05/17 05:59:51;;;;;;;6.20;1.30;;;;;;;19.88;39.33;99792.39;79497;1300;3012756;-69
2023/05/17 06:02:20;;;;;;;2.60;1.30;;;;;;;19.89;38.61;99787.09;78053;1300;3028350;-65
2023/05/17 06:04:47;;;;;;;7.70;1.50;;;;;;;20.02;38.66;99788.78;79589;1298;3020778;-66
2023/05/17 06:07:13;;;;;;;4.30;1.40;;;;;;;20.09;38.48;99788.28;79495;1298;3013338;-64
2023/05/17 06:09:41;;;;;;;2.50;1.00;;;;;;;20.17;38.52;99790.38;78169;1296;3026586;-65
2023/05/17 06:12:08;;;;;;;6.60;1.10;;;;;;;20.21;37.62;99789.40;79512;1308;3013707;-66
2023/05/17 06:14:38;;;;;;;6.10;1.00;;;;;;;20.24;37.68;99789.34;79705;1295;3011590;-67
2023/05/17 06:17:06;;;;;;;3.30;1.70;;;;;;;20.24;37.57;99792.67;78361;1299;3057155;-67
2023/05/17 06:19:33;;;;;;;3.40;0.80;;;;;;;20.28;37.60;99790.72;79591;1300;3013231;-66
2023/05/17 06:21:59;;;;;;;4.00;1.00;;;;;;;20.31;36.94;99790.02;79643;1299;3011971;-66
2023/05/17 06:24:27;;;;;;;5.40;1.30;;;;;;;20.34;36.24;99786.13;78533;1300;3028874;-64
2023/05/17 06:26:54;;;;;;;4.70;1.40;;;;;;;20.38;35.87;99787.64;79589;1306;3018407;-70
2023/05/17 06:29:20;;;;;;;9.80;1.50;;;;;;;20.45;35.67;99787.45;79494;1300;3013086;-65
2023/05/17 06:31:49;;;;;;;20.00;2.30;;;;;;;20.50;35.32;99787.31;78592;1294;3025965;-66
2023/05/17 06:34:15;;;;;;;13.10;1.70;;;;;;;20.59;35.19;99786.48;79639;1295;3013439;-69
2023/05/17 06:36:42;;;;;;;6.20;1.60;;;;;;;20.69;35.36;99781.77;79525;1297;3011380;-69
2023/05/17 06:39:10;;;;;;;6.50;1.60;;;;;;;20.84;35.44;99782.83;78381;1299;3028671;-66
2023/05/17 06:41:36;;;;;;;8.10;1.90;;;;;;;20.94;35.31;99780.42;79637;1296;3013163;-68
2023/05/17 06:44:03;;;;;;;7.20;1.60;;;;;;;20.98;34.99;99780.21;79578;1297;3011550;-68
2023/05/17 06:46:31;;;;;;;8.60;1.60;;;;;;;21.00;34.52;99778.94;78329;1308;3027227;-65
2023/05/17 06:48:57;;;;;;;12.30;2.20;;;;;;;21.01;34.37;99780.64;79379;1301;3013716;-68
2023/05/17 06:51:24;;;;;;;14.90;2.40;;;;;;;21.07;34.44;99782.66;79801;1298;3013949;-71
2023/05/17 06:53:52;;;;;;;15.10;2.10;;;;;;;21.09;34.73;99779.30;78310;1300;3026882;-66
2023/05/17 06:56:18;;;;;;;10.70;1.70;;;;;;;21.25;34.81;99781.29;79603;1294;3013012;-70
2023/05/17 06:58:45;;;;;;;7.10;1.30;;;;;;;21.33;34.25;99776.16;79625;1295;3012962;-68
2023/05/17 07:01:13;;;;;;;8.10;1.30;;;;;;;21.45;33.44;99776.95;78480;1303;3026224;-68
2023/05/17 07:03:39;;;;;;;9.80;1.20;;;;;;;21.51;32.65;99775.48;79811;1294;3013054;-67
2023/05/17 07:06:08;;;;;;;4.00;1.30;;;;;;;21.62;32.27;99772.23;79566;1295;3011663;-67
2023/05/17 07:08:39;;;;;;;3.80;1.00;;;;;;;21.67;31.85;99775.00;78093;1307;3052115;-67
2023/05/17 07:11:05;;;;;;;2.90;1.00;;;;;;;21.72;31.77;99779.43;79799;1300;3013667;-68
2023/05/17 07:13:32;;;;;;;2.10;1.10;;;;;;;21.81;31.72;99774.68;79722;1298;3011765;-69
2023/05/17 07:16:00;;;;;;;2.20;1.10;;;;;;;21.85;31.35;99778.28;78129;1294;3057600;-69
2023/05/17 07:18:27;;;;;;;3.40;0.80;;;;;;;21.88;31.30;99772.92;79724;1296;3018827;-66
2023/05/17 07:20:53;;;;;;;2.80;1.00;;;;;;;21.88;30.63;99778.66;79732;1298;3011926;-66
2023/05/17 07:23:22;;;;;;;3.20;1.00;;;;;;;21.90;30.67;99777.94;78294;1299;3051191;-70
2023/05/17 07:25:49;;;;;;;3.80;0.80;;;;;;;21.92;30.71;99779.69;79616;1298;3013700;-69
2023/05/17 07:28:15;;;;;;;2.50;0.80;;;;;;;22.01;30.83;99780.50;79581;1298;3011659;-70
2023/05/17 07:30:43;;;;;;;1.50;0.90;;;;;;;22.07;30.97;99779.03;78191;1299;3027111;-72
2023/05/17 07:33:11;;;;;;;5.70;1.00;;;;;;;22.05;30.39;99776.91;79471;1295;3014777;-68
2023/05/17 07:35:37;;;;;;;5.10;1.00;;;;;;;22.13;30.43;99776.25;79752;1308;3011745;-67
2023/05/17 07:38:06;;;;;;;2.90;0.90;;;;;;;22.15;30.42;99773.17;78382;1299;3052114;-68
2023/05/17 07:40:32;;;;;;;2.10;0.90;;;;;;;22.25;29.91;99768.23;79541;1294;3013601;-68
2023/05/17 07:42:59;;;;;;;1.30;0.80;;;;;;;22.29;30.07;99770.32;79631;1296;3011791;-68
2023/05/17 07:45:27;;;;;;;3.80;0.90;;;;;;;22.34;29.84;99775.16;78234;1298;3026394;-70
2023/05/17 07:47:54;;;;;;;1.90;1.10;;;;;;;22.51;29.96;99777.89;79587;1296;3019379;-70
2023/05/17 07:50:20;;;;;;;3.80;0.80;;;;;;;22.59;29.68;99774.15;79628;1296;3011469;-71
2023/05/17 07:52:48;;;;;;;8.00;1.00;;;;;;;22.66;29.48;99773.73;78600;1298;3025009;-68
2023/05/17 07:55:16;;;;;;;5.10;0.90;;;;;;;22.66;29.37;99776.45;79660;1295;3018518;-71
2023/05/17 07:57:43;;;;;;;2.90;0.80;;;;;;;22.65;29.34;99777.74;79493;1298;3011559;-66
2023/05/17 08:00:12;;;;;;;3.10;1.20;;;;;;;22.63;29.37;99773.83;78554;1299;3056829;-69
2023/05/17 08:02:40;;;;;;;2.20;1.00;;;;;;;22.73;29.28;99775.15;79830;1295;3011870;-67
2023/05/17 08:05:07;;;;;;;4.60;1.10;;;;;;;22.73;29.42;99775.27;79776;1298;3011430;-70
2023/05/17 08:07:35;;;;;;;8.10;1.10;;;;;;;22.68;29.58;99773.52;78390;1298;3051975;-66
2023/05/17 08:10:02;;;;;;;2.60;1.20;;;;;;;22.83;29.49;99769.79;79662;1294;3018512;-71
2023/05/17 08:12:29;;;;;;;2.60;1.00;;;;;;;22.96;29.31;99767.35;79634;1299;3013097;-72
2023/05/17 08:14:57;;;;;;;3.80;1.00;;;;;;;23.07;29.16;99768.63;78308;1298;3057004;-70
2023/05/17 08:17:24;;;;;;;6.40;1.00;;;;;;;23.11;29.32;99766.77;79608;1295;3013883;-71
2023/05/17 08:19:50;;;;;;;4.00;1.10;;;;;;;23.07;29.43;99764.85;79811;1294;3013151;-68
2023/05/17 08:22:18;;;;;;;2.80;1.10;;;;;;;22.98;29.25;99768.33;78450;1298;3025875;-71
2023/05/17 08:24:45;;;;;;;2.70;1.00;;;;;;;23.00;29.32;99770.44;79721;1296;3013661;-67
2023/05/17 08:27:11;;;;;;;2.00;0.90;;;;;;;22.97;28.59;99774.92;79662;1295;3011525;-73
2023/05/17 08:29:39;;;;;;;3.00;1.00;;;;;;;23.07;28.45;99774.13;78382;1294;3026070;-67
2023/05/17 08:32:06;;;;;;;2.70;1.20;;;;;;;23.08;28.71;99774.09;79625;1298;3013536;-68
2023/05/17 08:34:33;;;;;;;3.20;1.20;;;;;;;23.12;29.10;99767.98;79416;1295;3011972;-69
2023/05/17 08:37:01;;;;;;;6.30;1.20;;;;;;;23.19;29.14;99773.83;78120;1299;3052592;-68
2023/05/17 08:39:28;;;;;;;3.00;1.10;;;;;;;23.23;29.12;99765.68;79523;1299;3013710;-68
2023/05/17 08:41:58;;;;;;;1.90;1.00;;;;;;;23.27;29.07;99762.16;79339;1294;3011637;-68
2023/05/17 08:44:27;;;;;;;3.70;1.30;;;;;;;23.38;29.13;99761.58;78388;1294;3056207;-67
2023/05/17 08:46:53;;;;;;;2.70;1.10;;;;;;;23.49;29.05;99763.05;79518;1294;3013610;-67
2023/05/17 08:49:24;;;;;;;2.30;1.00;;;;;;;23.52;29.11;99762.10;79634;1295;3011511;-70
2023/05/17 08:51:52;;;;;;;6.60;1.20;;;;;;;23.55;29.15;99755.39;78445;1298;3051801;-68
2023/05/17 08:54:19;;;;;;;3.80;1.00;;;;;;;23.66;28.76;99749.71;79642;1298;3013526;-70
2023/05/17 08:56:46;;;;;;;1.80;1.00;;;;;;;23.63;28.79;99750.72;79301;1300;3013878;-67
2023/05/17 08:59:13;;;;;;;4.80;1.10;;;;;;;23.74;28.42;99752.38;78239;1300;3028556;-70
2023/05/17 09:01:40;;;;;;;2.50;1.00;;;;;;;23.87;28.21;99748.75;79402;1294;3012901;-70
2023/05/17 09:04:08;;;;;;;11.50;1.40;;;;;;;23.98;27.57;99745.65;79524;1300;3011940;-74
2023/05/17 09:06:36;;;;;;;9.00;1.70;;;;;;;24.02;27.31;99745.77;78398;1298;3051575;-66
2023/05/17 09:09:03;;;;;;;3.30;0.90;;;;;;;24.02;26.72;99746.61;79677;1298;3018609;-67
2023/05/17 09:11:31;;;;;;;4.90;0.90;;;;;;;24.09;26.20;99745.50;79694;1299;3011653;-68
2023/05/17 09:14:00;;;;;;;6.50;0.90;;;;;;;24.18;25.77;99743.55;78537;1295;3056563;-66
2023/05/17 09:16:34;;;;;;;3.60;0.70;;;;;;;24.29;25.44;99737.25;79644;1295;3013416;-67
2023/05/17 09:19:02;;;;;;;5.50;1.00;;;;;;;24.43;25.68;99739.66;78315;1294;3049851;-65
2023/05/17 09:21:30;;;;;;;4.90;1.10;;;;;;;24.48;26.01;99734.60;79620;1293;3013278;-66
2023/05/17 09:24:00;;;;;;;3.60;1.00;;;;;;;24.32;26.66;99730.99;79672;1296;3013437;-67
2023/05/17 09:26:42;;;;;;;3.90;1.00;;;;;;;24.43;26.87;99729.23;78586;1299;3051748;-70
2023/05/17 09:29:12;;;;;;;3.60;1.50;;;;;;;24.50;26.62;99727.41;78378;1294;3056672;-69
2023/05/17 09:31:39;;;;;;;7.00;1.30;;;;;;;24.45;27.29;99730.95;79688;1295;3012870;-68
2023/05/17 09:34:06;;;;;;;1.40;1.00;;;;;;;24.53;27.41;99730.31;79638;1299;3012053;-66
2023/05/17 09:36:36;;;;;;;3.10;1.10;;;;;;;24.62;27.36;99727.41;78319;1308;3051967;-71
2023/05/17 09:39:09;;;;;;;4.00;1.10;;;;;;;24.75;27.30;99725.58;79730;1294;3013029;-68
2023/05/17 09:41:42;;;;;;;1.20;0.80;;;;;;;24.83;27.50;99728.79;78571;1299;3050812;-70
2023/05/17 09:44:09;;;;;;;1.80;1.30;;;;;;;24.89;27.74;99725.04;79804;1294;3011844;-67
2023/05/17 09:46:47;;;;;;;4.10;1.10;;;;;;;24.88;27.34;99722.84;78747;1294;3049412;-69
2023/05/17 09:49:16;;;;;;;4.50;0.90;;;;;;;24.86;27.21;99718.59;78920;1295;3053389;-73
2023/05/17 09:51:44;;;;;;;2.40;0.80;;;;;;;24.85;26.99;99717.41;80137;1298;3013441;-71
2023/05/17 09:54:11;;;;;;;2.70;0.90;;;;;;;24.94;27.01;99716.07;81362;1294;3011621;-71
2023/05/17 09:56:38;;;;;;;4.30;1.00;;;;;;;25.01;26.65;99716.11;79482;1295;3068310;-68
2023/05/17 09:59:12;;;;;;;1.50;0.90;;;;;;;25.21;26.44;99718.05;80691;1298;3012876;-65
2023/05/17 10:01:42;;;;;;;5.00;1.00;;;;;;;25.32;26.17;99712.88;78705;1297;3049881;-65
2023/05/17 10:04:09;;;;;;;4.00;1.00;;;;;;;25.32;26.15;99708.68;79536;1295;3013266;-70
2023/05/17 10:06:37;;;;;;;1.10;0.50;;;;;;;25.48;26.19;99710.80;79558;1298;3011730;-66
2023/05/17 10:09:05;;;;;;;1.70;0.80;;;;;;;25.54;26.10;99712.54;78489;1298;3052639;-71
2023/05/17 10:11:33;;;;;;;2.00;0.60;;;;;;;25.68;25.77;99714.27;79769;1295;3012652;-63
2023/05/17 10:14:00;;;;;;;4.40;0.90;;;;;;;25.63;25.82;99714.15;79597;1296;3013519;-69
2023/05/17 10:16:28;;;;;;;1.80;0.80;;;;;;;25.73;25.71;99713.16;78504;1294;3026556;-66
2023/05/17 10:18:54;;;;;;;1.30;0.70;;;;;;;25.73;25.37;99710.68;79476;1297;3014316;-70
2023/05/17 10:21:21;;;;;;;5.10;0.90;;;;;;;25.69;25.61;99705.79;79503;1294;3012933;-67
2023/05/17 10:23:49;;;;;;;3.70;0.90;;;;;;;25.85;25.74;99707.41;78380;1299;3026474;-67
2023/05/17 10:26:16;;;;;;;3.00;0.90;;;;;;;25.85;26.37;99705.46;79601;1299;3013058;-69
2023/05/17 10:28:42;;;;;;;1.80;0.80;;;;;;;25.83;26.73;99703.54;79471;1294;3011642;-72
2023/05/17 10:31:11;;;;;;;1.50;0.70;;;;;;;25.88;26.67;99700.41;78016;1300;3028678;-69
2023/05/17 10:33:38;;;;;;;6.90;1.00;;;;;;;26.02;26.03;99696.66;79440;1295;3013113;-67
2023/05/17 10:36:05;;;;;;;1.60;0.90;;;;;;;25.99;25.85;99696.18;79686;1296;3011495;-69
2023/05/17 10:38:33;;;;;;;4.20;0.90;;;;;;;26.05;25.72;99695.14;78393;1297;3052119;-67
2023/05/17 10:41:00;;;;;;;2.00;0.80;;;;;;;26.00;26.11;99696.27;79661;1294;3013155;-70
2023/05/17 10:43:27;;;;;;;5.90;1.00;;;;;;;25.97;26.21;99694.11;79663;1299;3011619;-68
2023/05/17 10:45:55;;;;;;;2.00;1.00;;;;;;;25.97;26.32;99691.66;78213;1300;3025843;-66
2023/05/17 10:48:22;;;;;;;5.20;1.10;;;;;;;25.94;26.06;99690.58;79504;1300;3012853;-72
2023/05/17 10:50:48;;;;;;;2.20;1.10;;;;;;;25.99;26.22;99690.63;79433;1294;3011668;-71
2023/05/17 10:53:17;;;;;;;2.30;1.00;;;;;;;26.19;26.65;99681.60;78546;1294;3053010;-69
2023/05/17 10:55:43;;;;;;;3.30;1.10;;;;;;;26.26;26.75;99682.47;79644;1294;3014003;-69
2023/05/17 10:58:17;;;;;;;11.80;1.10;;;;;;;26.20;26.51;99681.08;79495;1299;3013135;-71
2023/05/17 11:00:47;;;;;;;4.40;0.80;;;;;;;26.13;26.57;99682.39;80813;1294;3048795;-68
2023/05/17 11:03:22;;;;;;;2.90;1.00;;;;;;;26.26;26.21;99678.27;82128;1294;3011497;-71
2023/05/17 11:06:16;;;;;;;1.10;0.80;;;;;;;26.27;26.30;99678.79;80788;1294;3049989;-65
2023/05/17 11:09:06;;;;;;;3.00;1.20;;;;;;;26.37;25.84;99680.48;80833;1294;3053120;-68
2023/05/17 11:11:35;;;;;;;5.30;0.90;;;;;;;26.58;25.69;99673.95;80829;1294;3052157;-68
2023/05/17 11:14:03;;;;;;;1.90;0.80;;;;;;;26.89;25.53;99664.69;82123;1294;3012733;-69
2023/05/17 11:16:36;;;;;;;1.00;0.80;;;;;;;27.04;25.41;99664.94;82103;1292;3011473;-70
2023/05/17 11:19:08;;;;;;;1.60;0.80;;;;;;;26.96;25.10;99661.98;80882;1292;3049957;-67
2023/05/17 11:21:35;;;;;;;4.90;1.00;;;;;;;27.02;24.98;99665.77;82069;1294;3011146;-70
2023/05/17 11:24:05;;;;;;;1.80;1.20;;;;;;;27.00;25.11;99665.06;80835;1294;3048930;-69